createdAt,value
2017-03-02T00:00:02.943Z,867.32
2017-03-02T00:00:07.603Z,867.31
2017-03-02T00:00:12.113Z,867.31
2017-03-02T00:00:16.341Z,867.35
2017-03-02T00:00:20.995Z,867.31
2017-03-02T00:00:25.475Z,867.31
2017-03-02T00:00:29.973Z,867.32
2017-03-02T00:00:34.354Z,867.37
2017-03-02T00:00:38.844Z,867.36
2017-03-02T00:00:43.496Z,867.31
2017-03-02T00:00:48.184Z,867.35
2017-03-02T00:00:52.539Z,867.34
2017-03-02T00:00:57.046Z,867.36
2017-03-02T00:01:01.693Z,867.34
2017-03-02T00:01:06.325Z,867.31
2017-03-02T00:01:10.994Z,867.34
2017-03-02T00:01:15.681Z,867.32
2017-03-02T00:01:20.171Z,867.31
2017-03-02T00:01:24.523Z,867.25
2017-03-02T00:01:29.179Z,867.33
2017-03-02T00:01:33.711Z,867.33
2017-03-02T00:01:38.215Z,867.35
2017-03-02T00:01:42.564Z,867.36
2017-03-02T00:01:47.048Z,867.33
2017-03-02T00:01:51.703Z,867.33
2017-03-02T00:01:56.355Z,867.33
2017-03-02T00:02:01.005Z,867.31
2017-03-02T00:02:05.804Z,867.31
2017-03-02T00:02:10.162Z,867.32
2017-03-02T00:02:14.849Z,867.34
2017-03-02T00:02:19.488Z,867.35
2017-03-02T00:02:23.833Z,867.31
2017-03-02T00:02:28.242Z,867.27
2017-03-02T00:02:32.870Z,867.3
2017-03-02T00:02:37.501Z,867.26
2017-03-02T00:02:41.746Z,867.24
2017-03-02T00:02:46.244Z,867.26
2017-03-02T00:02:50.893Z,867.27
2017-03-02T00:02:55.416Z,867.31
2017-03-02T00:03:00.061Z,867.26
2017-03-02T00:03:05.001Z,867.23
2017-03-02T00:03:09.674Z,867.34
2017-03-02T00:03:14.323Z,867.3
2017-03-02T00:03:18.948Z,867.31
2017-03-02T00:03:23.454Z,867.34
2017-03-02T00:03:27.996Z,867.31
2017-03-02T00:03:32.499Z,867.31
2017-03-02T00:03:37.037Z,867.33
2017-03-02T00:03:41.535Z,867.3
2017-03-02T00:03:46.041Z,867.3
2017-03-02T00:03:50.692Z,867.28
2017-03-02T00:03:55.331Z,867.32
2017-03-02T00:03:59.991Z,867.31
2017-03-02T00:04:04.892Z,867.29
2017-03-02T00:04:09.547Z,867.32
2017-03-02T00:04:14.182Z,867.29
2017-03-02T00:04:18.824Z,867.31
2017-03-02T00:04:23.500Z,867.33
2017-03-02T00:04:28.150Z,867.3
2017-03-02T00:04:32.825Z,867.29
2017-03-02T00:04:37.469Z,867.31
2017-03-02T00:04:41.983Z,867.26
2017-03-02T00:04:46.631Z,867.3
2017-03-02T00:04:51.111Z,867.32
2017-03-02T00:04:55.772Z,867.27
2017-03-02T00:05:00.419Z,867.31
2017-03-02T00:05:04.920Z,867.27
2017-03-02T00:05:09.563Z,867.31
2017-03-02T00:05:14.211Z,867.29
2017-03-02T00:05:18.868Z,867.29
2017-03-02T00:05:23.525Z,867.34
2017-03-02T00:05:28.015Z,867.34
2017-03-02T00:05:32.666Z,867.32
2017-03-02T00:05:37.352Z,867.33
2017-03-02T00:05:41.862Z,867.3
2017-03-02T00:05:46.504Z,867.33
2017-03-02T00:05:50.874Z,867.33
2017-03-02T00:05:55.552Z,867.35
2017-03-02T00:06:00.191Z,867.35
2017-03-02T00:06:05.077Z,867.34
2017-03-02T00:06:09.565Z,867.32
2017-03-02T00:06:14.200Z,867.33
2017-03-02T00:06:18.853Z,867.34
2017-03-02T00:06:23.366Z,867.3
2017-03-02T00:06:27.864Z,867.32
2017-03-02T00:06:32.376Z,867.31
2017-03-02T00:06:36.865Z,867.27
2017-03-02T00:06:41.522Z,867.3
2017-03-02T00:06:46.169Z,867.29
2017-03-02T00:06:50.663Z,867.3
2017-03-02T00:06:55.159Z,867.28
2017-03-02T00:06:59.789Z,867.3
2017-03-02T00:07:04.645Z,867.27
2017-03-02T00:07:09.159Z,867.31
2017-03-02T00:07:13.811Z,867.33
2017-03-02T00:07:18.445Z,867.28
2017-03-02T00:07:22.778Z,867.26
2017-03-02T00:07:27.433Z,867.31
2017-03-02T00:07:32.088Z,867.31
2017-03-02T00:07:36.741Z,867.29
2017-03-02T00:07:41.400Z,867.32
2017-03-02T00:07:45.757Z,867.32
2017-03-02T00:07:50.248Z,867.34
2017-03-02T00:07:54.741Z,867.36
2017-03-02T00:07:59.394Z,867.33
2017-03-02T00:08:04.177Z,867.28
2017-03-02T00:08:08.822Z,867.33
2017-03-02T00:08:13.482Z,867.35
2017-03-02T00:08:17.966Z,867.3
2017-03-02T00:08:22.629Z,867.33
2017-03-02T00:08:27.300Z,867.31
2017-03-02T00:08:31.934Z,867.32
2017-03-02T00:08:36.446Z,867.3
2017-03-02T00:08:40.934Z,867.31
2017-03-02T00:08:45.322Z,867.28
2017-03-02T00:08:49.986Z,867.36
2017-03-02T00:08:54.628Z,867.32
2017-03-02T00:08:59.287Z,867.32
2017-03-02T00:09:04.198Z,867.33
2017-03-02T00:09:08.850Z,867.31
2017-03-02T00:09:13.487Z,867.33
2017-03-02T00:09:18.002Z,867.32
2017-03-02T00:09:22.494Z,867.32
2017-03-02T00:09:27.002Z,867.31
2017-03-02T00:09:31.499Z,867.28
2017-03-02T00:09:36.135Z,867.29
2017-03-02T00:09:40.773Z,867.28
2017-03-02T00:09:45.427Z,867.31
2017-03-02T00:09:49.784Z,867.3
2017-03-02T00:09:54.280Z,867.27
2017-03-02T00:09:58.781Z,867.28
2017-03-02T00:10:03.431Z,867.3
2017-03-02T00:10:07.780Z,867.3
2017-03-02T00:10:12.449Z,867.28
2017-03-02T00:10:16.941Z,867.28
2017-03-02T00:10:21.291Z,867.32
2017-03-02T00:10:25.943Z,867.3
2017-03-02T00:10:30.597Z,867.29
2017-03-02T00:10:35.256Z,867.34
2017-03-02T00:10:39.764Z,867.31
2017-03-02T00:10:44.395Z,867.33
2017-03-02T00:10:48.903Z,867.32
2017-03-02T00:10:53.283Z,867.27
2017-03-02T00:10:57.930Z,867.3
2017-03-02T00:11:02.582Z,867.29
2017-03-02T00:11:07.230Z,867.19
2017-03-02T00:11:11.907Z,867.21
2017-03-02T00:11:16.559Z,867.23
2017-03-02T00:11:21.220Z,867.29
2017-03-02T00:11:25.918Z,867.28
2017-03-02T00:11:30.395Z,867.26
2017-03-02T00:11:34.899Z,867.26
2017-03-02T00:11:39.552Z,867.26
2017-03-02T00:11:44.071Z,867.24
2017-03-02T00:11:48.575Z,867.24
2017-03-02T00:11:53.097Z,867.23
2017-03-02T00:11:57.589Z,867.29
2017-03-02T00:12:02.235Z,867.26
2017-03-02T00:12:06.893Z,867.26
2017-03-02T00:12:11.556Z,867.28
2017-03-02T00:12:16.227Z,867.27
2017-03-02T00:12:20.724Z,867.27
2017-03-02T00:12:25.401Z,867.23
2017-03-02T00:12:29.908Z,867.21
2017-03-02T00:12:34.558Z,867.27
2017-03-02T00:12:39.202Z,867.3
2017-03-02T00:12:43.572Z,867.27
2017-03-02T00:12:48.216Z,867.29
2017-03-02T00:12:52.562Z,867.3
2017-03-02T00:12:57.215Z,867.2
2017-03-02T00:13:01.861Z,867.21
2017-03-02T00:13:06.513Z,867.27
2017-03-02T00:13:11.184Z,867.22
2017-03-02T00:13:15.843Z,867.28
2017-03-02T00:13:20.482Z,867.29
2017-03-02T00:13:25.125Z,867.28
2017-03-02T00:13:29.787Z,867.28
2017-03-02T00:13:34.301Z,867.27
2017-03-02T00:13:38.967Z,867.2
2017-03-02T00:13:43.602Z,867.18
2017-03-02T00:13:48.267Z,867.2
2017-03-02T00:13:52.631Z,867.2
2017-03-02T00:13:57.281Z,867.24
2017-03-02T00:14:01.960Z,867.28
2017-03-02T00:14:06.299Z,867.27
2017-03-02T00:14:10.932Z,867.31
2017-03-02T00:14:15.580Z,867.34
2017-03-02T00:14:20.071Z,867.35
2017-03-02T00:14:24.588Z,867.33
2017-03-02T00:14:29.232Z,867.33
2017-03-02T00:14:33.902Z,867.31
2017-03-02T00:14:38.400Z,867.29
2017-03-02T00:14:43.061Z,867.27
2017-03-02T00:14:47.725Z,867.32
2017-03-02T00:14:52.371Z,867.31
2017-03-02T00:14:56.715Z,867.25
2017-03-02T00:15:01.373Z,867.27
2017-03-02T00:15:05.753Z,867.25
2017-03-02T00:15:10.405Z,867.26
2017-03-02T00:15:15.051Z,867.32
2017-03-02T00:15:19.686Z,867.34
2017-03-02T00:15:24.338Z,867.35
2017-03-02T00:15:29.004Z,867.34
2017-03-02T00:15:33.673Z,867.34
2017-03-02T00:15:38.183Z,867.33
2017-03-02T00:15:42.844Z,867.32
2017-03-02T00:15:47.328Z,867.32
2017-03-02T00:15:51.700Z,867.32
2017-03-02T00:15:56.194Z,867.34
2017-03-02T00:16:00.847Z,867.27
2017-03-02T00:16:05.497Z,867.27
2017-03-02T00:16:10.130Z,867.3
2017-03-02T00:16:14.784Z,867.29
2017-03-02T00:16:19.134Z,867.29
2017-03-02T00:16:23.769Z,867.33
2017-03-02T00:16:28.413Z,867.33
2017-03-02T00:16:32.920Z,867.31
2017-03-02T00:16:37.572Z,867.32
2017-03-02T00:16:42.072Z,867.32
2017-03-02T00:16:46.701Z,867.29
2017-03-02T00:16:51.055Z,867.28
2017-03-02T00:16:55.690Z,867.3
2017-03-02T00:17:00.337Z,867.3
2017-03-02T00:17:05.117Z,867.29
2017-03-02T00:17:09.777Z,867.33
2017-03-02T00:17:14.412Z,867.32
2017-03-02T00:17:19.067Z,867.3
2017-03-02T00:17:23.439Z,867.31
2017-03-02T00:17:27.940Z,867.33
2017-03-02T00:17:32.589Z,867.35
2017-03-02T00:17:37.239Z,867.23
2017-03-02T00:17:41.877Z,867.31
2017-03-02T00:17:46.393Z,867.31
2017-03-02T00:17:50.896Z,867.29
2017-03-02T00:17:55.529Z,867.31
2017-03-02T00:18:00.222Z,867.31
2017-03-02T00:18:05.219Z,867.29
2017-03-02T00:18:09.723Z,867.29
2017-03-02T00:18:14.387Z,867.3
2017-03-02T00:18:19.028Z,867.31
2017-03-02T00:18:23.680Z,867.28
2017-03-02T00:18:28.183Z,867.29
2017-03-02T00:18:32.841Z,867.31
2017-03-02T00:18:37.507Z,867.34
2017-03-02T00:18:42.207Z,867.31
2017-03-02T00:18:46.724Z,867.3
2017-03-02T00:18:51.080Z,867.28
2017-03-02T00:18:55.739Z,867.27
2017-03-02T00:19:00.265Z,867.3
2017-03-02T00:19:05.007Z,867.32
2017-03-02T00:19:09.638Z,867.28
2017-03-02T00:19:14.295Z,867.3
2017-03-02T00:19:18.934Z,867.3
2017-03-02T00:19:23.600Z,867.32
2017-03-02T00:19:28.251Z,867.3
2017-03-02T00:19:32.890Z,867.32
2017-03-02T00:19:37.546Z,867.32
2017-03-02T00:19:42.225Z,867.24
2017-03-02T00:19:46.870Z,867.3
2017-03-02T00:19:51.353Z,867.29
2017-03-02T00:19:55.712Z,867.27
2017-03-02T00:20:00.221Z,867.3
2017-03-02T00:20:04.865Z,867.32
2017-03-02T00:20:09.502Z,867.35
2017-03-02T00:20:14.147Z,867.31
2017-03-02T00:20:18.780Z,867.32
2017-03-02T00:20:23.434Z,867.32
2017-03-02T00:20:27.972Z,867.31
2017-03-02T00:20:32.615Z,867.31
2017-03-02T00:20:37.107Z,867.32
2017-03-02T00:20:41.644Z,867.31
2017-03-02T00:20:46.295Z,867.3
2017-03-02T00:20:50.920Z,867.33
2017-03-02T00:20:55.562Z,867.3
2017-03-02T00:21:00.061Z,867.36
2017-03-02T00:21:04.757Z,867.37
2017-03-02T00:21:09.435Z,867.35
2017-03-02T00:21:14.099Z,867.35
2017-03-02T00:21:18.593Z,867.35
2017-03-02T00:21:23.103Z,867.35
2017-03-02T00:21:27.755Z,867.35
2017-03-02T00:21:32.380Z,867.29
2017-03-02T00:21:37.046Z,867.34
2017-03-02T00:21:41.564Z,867.34
2017-03-02T00:21:46.216Z,867.36
2017-03-02T00:21:50.864Z,867.32
2017-03-02T00:21:55.519Z,867.28
2017-03-02T00:22:00.168Z,867.32
2017-03-02T00:22:05.166Z,867.37
2017-03-02T00:22:09.687Z,867.37
2017-03-02T00:22:14.207Z,867.33
2017-03-02T00:22:18.733Z,867.37
2017-03-02T00:22:23.418Z,867.34
2017-03-02T00:22:28.055Z,867.4
2017-03-02T00:22:32.706Z,867.37
2017-03-02T00:22:37.204Z,867.37
2017-03-02T00:22:41.857Z,867.39
2017-03-02T00:22:46.497Z,867.37
2017-03-02T00:22:51.007Z,867.35
2017-03-02T00:22:55.666Z,867.35
2017-03-02T00:23:00.315Z,867.35
2017-03-02T00:23:05.194Z,867.33
2017-03-02T00:23:09.838Z,867.37
2017-03-02T00:23:14.491Z,867.39
2017-03-02T00:23:19.142Z,867.38
2017-03-02T00:23:23.793Z,867.4
2017-03-02T00:23:28.300Z,867.38
2017-03-02T00:23:32.966Z,867.34
2017-03-02T00:23:37.614Z,867.36
2017-03-02T00:23:41.951Z,867.33
2017-03-02T00:23:46.656Z,867.37
2017-03-02T00:23:51.291Z,867.4
2017-03-02T00:23:55.782Z,867.37
2017-03-02T00:24:00.437Z,867.42
2017-03-02T00:24:05.460Z,867.4
2017-03-02T00:24:10.114Z,867.42
2017-03-02T00:24:14.497Z,867.45
2017-03-02T00:24:19.132Z,867.44
2017-03-02T00:24:23.621Z,867.43
2017-03-02T00:24:28.273Z,867.39
2017-03-02T00:24:32.771Z,867.45
2017-03-02T00:24:37.261Z,867.42
2017-03-02T00:24:41.900Z,867.41
2017-03-02T00:24:46.551Z,867.39
2017-03-02T00:24:51.064Z,867.42
2017-03-02T00:24:55.565Z,867.41
2017-03-02T00:25:00.204Z,867.4
2017-03-02T00:25:05.046Z,867.39
2017-03-02T00:25:09.690Z,867.39
2017-03-02T00:25:14.324Z,867.34
2017-03-02T00:25:18.989Z,867.4
2017-03-02T00:25:23.644Z,867.41
2017-03-02T00:25:28.133Z,867.39
2017-03-02T00:25:32.642Z,867.39
2017-03-02T00:25:37.269Z,867.37
2017-03-02T00:25:41.935Z,867.38
2017-03-02T00:25:46.583Z,867.4
2017-03-02T00:25:51.121Z,867.39
2017-03-02T00:25:55.599Z,867.37
2017-03-02T00:26:00.235Z,867.29
2017-03-02T00:26:04.965Z,867.37
2017-03-02T00:26:09.501Z,867.38
2017-03-02T00:26:14.150Z,867.39
2017-03-02T00:26:18.660Z,867.4
2017-03-02T00:26:23.331Z,867.37
2017-03-02T00:26:28.017Z,867.41
2017-03-02T00:26:32.710Z,867.4
2017-03-02T00:26:37.224Z,867.41
2017-03-02T00:26:41.724Z,867.39
2017-03-02T00:26:46.384Z,867.36
2017-03-02T00:26:51.038Z,867.42
2017-03-02T00:26:55.540Z,867.43
2017-03-02T00:27:00.173Z,867.42
2017-03-02T00:27:04.885Z,867.44
2017-03-02T00:27:09.534Z,867.42
2017-03-02T00:27:14.033Z,867.41
2017-03-02T00:27:18.726Z,867.42
2017-03-02T00:27:23.231Z,867.38
2017-03-02T00:27:27.431Z,867.42
2017-03-02T00:27:32.121Z,867.4
2017-03-02T00:27:36.627Z,867.43
2017-03-02T00:27:41.286Z,867.41
2017-03-02T00:27:45.945Z,867.44
2017-03-02T00:27:50.293Z,867.45
2017-03-02T00:27:54.788Z,867.44
2017-03-02T00:27:59.300Z,867.42
2017-03-02T00:28:03.945Z,867.41
2017-03-02T00:28:08.585Z,867.43
2017-03-02T00:28:13.102Z,867.42
2017-03-02T00:28:17.747Z,867.41
2017-03-02T00:28:22.395Z,867.41
2017-03-02T00:28:27.032Z,867.39
2017-03-02T00:28:31.525Z,867.44
2017-03-02T00:28:36.015Z,867.42
2017-03-02T00:28:40.540Z,867.4
2017-03-02T00:28:45.192Z,867.4
2017-03-02T00:28:49.543Z,867.43
2017-03-02T00:28:54.180Z,867.42
2017-03-02T00:28:58.824Z,867.39
2017-03-02T00:29:03.494Z,867.4
2017-03-02T00:29:08.129Z,867.44
2017-03-02T00:29:12.793Z,867.41
2017-03-02T00:29:17.439Z,867.43
2017-03-02T00:29:21.939Z,867.42
2017-03-02T00:29:26.461Z,867.43
2017-03-02T00:29:31.144Z,867.41
2017-03-02T00:29:35.790Z,867.38
2017-03-02T00:29:40.434Z,867.43
2017-03-02T00:29:45.104Z,867.44
2017-03-02T00:29:49.609Z,867.37
2017-03-02T00:29:54.261Z,867.39
2017-03-02T00:29:58.778Z,867.46
2017-03-02T00:30:03.511Z,867.42
2017-03-02T00:30:07.867Z,867.44
2017-03-02T00:30:12.232Z,867.43
2017-03-02T00:30:16.881Z,867.43
2017-03-02T00:30:21.376Z,867.44
2017-03-02T00:30:26.021Z,867.45
2017-03-02T00:30:30.686Z,867.43
2017-03-02T00:30:35.191Z,867.49
2017-03-02T00:30:39.833Z,867.45
2017-03-02T00:30:44.473Z,867.44
2017-03-02T00:30:48.999Z,867.45
2017-03-02T00:30:53.491Z,867.45
2017-03-02T00:30:58.003Z,867.38
2017-03-02T00:31:02.687Z,867.44
2017-03-02T00:31:07.335Z,867.46
2017-03-02T00:31:11.978Z,867.43
2017-03-02T00:31:16.473Z,867.43
2017-03-02T00:31:21.139Z,867.41
2017-03-02T00:31:25.658Z,867.45
2017-03-02T00:31:30.143Z,867.45
2017-03-02T00:31:34.636Z,867.45
2017-03-02T00:31:39.278Z,867.44
2017-03-02T00:31:43.963Z,867.43
2017-03-02T00:31:48.607Z,867.41
2017-03-02T00:31:53.286Z,867.39
2017-03-02T00:31:57.933Z,867.43
2017-03-02T00:32:02.581Z,867.42
2017-03-02T00:32:07.240Z,867.42
2017-03-02T00:32:11.902Z,867.41
2017-03-02T00:32:16.541Z,867.47
2017-03-02T00:32:21.196Z,867.43
2017-03-02T00:32:25.841Z,867.39
2017-03-02T00:32:30.324Z,867.38
2017-03-02T00:32:34.706Z,867.41
2017-03-02T00:32:39.185Z,867.43
2017-03-02T00:32:43.668Z,867.44
2017-03-02T00:32:48.329Z,867.42
2017-03-02T00:32:52.809Z,867.41
2017-03-02T00:32:57.488Z,867.42
2017-03-02T00:33:02.155Z,867.42
2017-03-02T00:33:06.802Z,867.43
2017-03-02T00:33:11.447Z,867.44
2017-03-02T00:33:15.939Z,867.43
2017-03-02T00:33:20.592Z,867.43
2017-03-02T00:33:25.242Z,867.43
2017-03-02T00:33:29.937Z,867.41
2017-03-02T00:33:34.596Z,867.44
2017-03-02T00:33:39.094Z,867.43
2017-03-02T00:33:43.609Z,867.42
2017-03-02T00:33:48.282Z,867.42
2017-03-02T00:33:52.787Z,867.4
2017-03-02T00:33:57.420Z,867.42
2017-03-02T00:34:02.358Z,867.41
2017-03-02T00:34:06.853Z,867.41
2017-03-02T00:34:11.193Z,867.41
2017-03-02T00:34:15.854Z,867.43
2017-03-02T00:34:20.359Z,867.42
2017-03-02T00:34:25.008Z,867.43
2017-03-02T00:34:29.551Z,867.38
2017-03-02T00:34:34.058Z,867.44
2017-03-02T00:34:38.739Z,867.48
2017-03-02T00:34:43.411Z,867.44
2017-03-02T00:34:48.052Z,867.43
2017-03-02T00:34:52.587Z,867.43
2017-03-02T00:34:57.093Z,867.46
2017-03-02T00:35:01.966Z,867.43
2017-03-02T00:35:06.464Z,867.43
2017-03-02T00:35:11.106Z,867.41
2017-03-02T00:35:15.752Z,867.44
2017-03-02T00:35:20.248Z,867.43
2017-03-02T00:35:24.589Z,867.43
2017-03-02T00:35:29.077Z,867.44
2017-03-02T00:35:33.587Z,867.45
2017-03-02T00:35:38.237Z,867.43
2017-03-02T00:35:42.870Z,867.44
2017-03-02T00:35:47.528Z,867.44
2017-03-02T00:35:52.021Z,867.45
2017-03-02T00:35:56.661Z,867.44
2017-03-02T00:36:01.287Z,867.42
2017-03-02T00:36:05.935Z,867.46
2017-03-02T00:36:10.592Z,867.43
2017-03-02T00:36:14.936Z,867.43
2017-03-02T00:36:19.441Z,867.43
2017-03-02T00:36:23.931Z,867.41
2017-03-02T00:36:28.455Z,867.43
2017-03-02T00:36:32.965Z,867.39
2017-03-02T00:36:37.600Z,867.4
2017-03-02T00:36:42.281Z,867.48
2017-03-02T00:36:46.783Z,867.47
2017-03-02T00:36:51.431Z,867.51
2017-03-02T00:36:55.934Z,867.51
2017-03-02T00:37:00.603Z,867.47
2017-03-02T00:37:05.257Z,867.46
2017-03-02T00:37:09.908Z,867.49
2017-03-02T00:37:14.408Z,867.46
2017-03-02T00:37:18.917Z,867.48
2017-03-02T00:37:23.420Z,867.46
2017-03-02T00:37:28.081Z,867.43
2017-03-02T00:37:32.736Z,867.42
2017-03-02T00:37:37.237Z,867.47
2017-03-02T00:37:41.746Z,867.46
2017-03-02T00:37:46.415Z,867.46
2017-03-02T00:37:51.062Z,867.44
2017-03-02T00:37:55.566Z,867.45
2017-03-02T00:38:00.223Z,867.44
2017-03-02T00:38:04.919Z,867.43
2017-03-02T00:38:09.406Z,867.43
2017-03-02T00:38:13.901Z,867.45
2017-03-02T00:38:18.256Z,867.44
2017-03-02T00:38:22.902Z,867.42
2017-03-02T00:38:27.559Z,867.44
2017-03-02T00:38:32.072Z,867.4
2017-03-02T00:38:36.713Z,867.42
2017-03-02T00:38:41.390Z,867.41
2017-03-02T00:38:46.043Z,867.42
2017-03-02T00:38:50.544Z,867.42
2017-03-02T00:38:55.189Z,867.41
2017-03-02T00:38:59.820Z,867.42
2017-03-02T00:39:04.463Z,867.43
2017-03-02T00:39:09.180Z,867.43
2017-03-02T00:39:13.679Z,867.46
2017-03-02T00:39:18.201Z,867.48
2017-03-02T00:39:22.857Z,867.46
2017-03-02T00:39:27.503Z,867.44
2017-03-02T00:39:32.154Z,867.44
2017-03-02T00:39:36.868Z,867.47
2017-03-02T00:39:41.514Z,867.41
2017-03-02T00:39:46.008Z,867.41
2017-03-02T00:39:50.641Z,867.42
2017-03-02T00:39:55.145Z,867.4
2017-03-02T00:39:59.786Z,867.43
2017-03-02T00:40:04.518Z,867.43
2017-03-02T00:40:09.141Z,867.44
2017-03-02T00:40:13.769Z,867.43
2017-03-02T00:40:18.399Z,867.42
2017-03-02T00:40:23.046Z,867.41
2017-03-02T00:40:27.569Z,867.42
2017-03-02T00:40:32.088Z,867.41
2017-03-02T00:40:36.741Z,867.45
2017-03-02T00:40:41.240Z,867.44
2017-03-02T00:40:45.737Z,867.43
2017-03-02T00:40:50.250Z,867.43
2017-03-02T00:40:54.772Z,867.44
2017-03-02T00:40:59.428Z,867.42
2017-03-02T00:41:04.163Z,867.43
2017-03-02T00:41:08.820Z,867.42
2017-03-02T00:41:13.354Z,867.42
2017-03-02T00:41:17.862Z,867.44
2017-03-02T00:41:22.360Z,867.39
2017-03-02T00:41:26.854Z,867.42
2017-03-02T00:41:31.498Z,867.41
2017-03-02T00:41:36.020Z,867.38
2017-03-02T00:41:40.523Z,867.39
2017-03-02T00:41:45.155Z,867.4
2017-03-02T00:41:49.510Z,867.37
2017-03-02T00:41:54.170Z,867.38
2017-03-02T00:41:58.519Z,867.35
2017-03-02T00:42:03.165Z,867.37
2017-03-02T00:42:07.830Z,867.39
2017-03-02T00:42:12.227Z,867.39
2017-03-02T00:42:16.730Z,867.39
2017-03-02T00:42:21.385Z,867.4
2017-03-02T00:42:25.884Z,867.37
2017-03-02T00:42:30.531Z,867.36
2017-03-02T00:42:35.039Z,867.39
2017-03-02T00:42:39.692Z,867.41
2017-03-02T00:42:44.324Z,867.4
2017-03-02T00:42:48.841Z,867.4
2017-03-02T00:42:53.343Z,867.44
2017-03-02T00:42:57.701Z,867.41
2017-03-02T00:43:02.448Z,867.44
2017-03-02T00:43:07.075Z,867.42
2017-03-02T00:43:11.580Z,867.44
2017-03-02T00:43:16.076Z,867.44
2017-03-02T00:43:20.579Z,867.46
2017-03-02T00:43:25.234Z,867.43
2017-03-02T00:43:29.719Z,867.43
2017-03-02T00:43:34.395Z,867.42
2017-03-02T00:43:39.067Z,867.4
2017-03-02T00:43:43.547Z,867.43
2017-03-02T00:43:48.189Z,867.4
2017-03-02T00:43:52.832Z,867.32
2017-03-02T00:43:57.510Z,867.45
2017-03-02T00:44:02.154Z,867.43
2017-03-02T00:44:06.816Z,867.46
2017-03-02T00:44:11.473Z,867.38
2017-03-02T00:44:15.992Z,867.4
2017-03-02T00:44:20.507Z,867.4
2017-03-02T00:44:24.997Z,867.37
2017-03-02T00:44:29.501Z,867.34
2017-03-02T00:44:34.012Z,867.35
2017-03-02T00:44:38.659Z,867.37
2017-03-02T00:44:43.155Z,867.41
2017-03-02T00:44:47.823Z,867.36
2017-03-02T00:44:52.474Z,867.4
2017-03-02T00:44:57.112Z,867.38
2017-03-02T00:45:02.119Z,867.39
2017-03-02T00:45:06.764Z,867.39
2017-03-02T00:45:11.265Z,867.38
2017-03-02T00:45:15.921Z,867.42
2017-03-02T00:45:20.564Z,867.39
2017-03-02T00:45:25.250Z,867.39
2017-03-02T00:45:29.736Z,867.42
2017-03-02T00:45:34.394Z,867.37
2017-03-02T00:45:39.072Z,867.41
2017-03-02T00:45:43.715Z,867.41
2017-03-02T00:45:48.363Z,867.38
2017-03-02T00:45:52.887Z,867.38
2017-03-02T00:45:57.373Z,867.38
2017-03-02T00:46:02.028Z,867.37
2017-03-02T00:46:06.670Z,867.36
2017-03-02T00:46:11.166Z,867.38
2017-03-02T00:46:15.838Z,867.39
2017-03-02T00:46:20.538Z,867.38
2017-03-02T00:46:24.892Z,867.38
2017-03-02T00:46:29.391Z,867.41
2017-03-02T00:46:33.907Z,867.38
2017-03-02T00:46:38.545Z,867.43
2017-03-02T00:46:43.205Z,867.4
2017-03-02T00:46:47.860Z,867.41
2017-03-02T00:46:52.503Z,867.4
2017-03-02T00:46:57.011Z,867.43
2017-03-02T00:47:01.677Z,867.34
2017-03-02T00:47:06.328Z,867.38
2017-03-02T00:47:10.969Z,867.4
2017-03-02T00:47:15.453Z,867.4
2017-03-02T00:47:20.084Z,867.41
2017-03-02T00:47:24.711Z,867.36
2017-03-02T00:47:29.056Z,867.43
2017-03-02T00:47:33.720Z,867.4
2017-03-02T00:47:38.212Z,867.42
2017-03-02T00:47:42.862Z,867.4
2017-03-02T00:47:47.350Z,867.43
2017-03-02T00:47:52.012Z,867.43
2017-03-02T00:47:56.669Z,867.42
2017-03-02T00:48:01.160Z,867.4
2017-03-02T00:48:05.804Z,867.41
2017-03-02T00:48:10.456Z,867.42
2017-03-02T00:48:15.088Z,867.43
2017-03-02T00:48:19.577Z,867.41
2017-03-02T00:48:24.233Z,867.39
2017-03-02T00:48:28.779Z,867.34
2017-03-02T00:48:33.444Z,867.39
2017-03-02T00:48:37.955Z,867.38
2017-03-02T00:48:42.607Z,867.39
2017-03-02T00:48:47.106Z,867.4
2017-03-02T00:48:51.750Z,867.39
2017-03-02T00:48:56.231Z,867.36
2017-03-02T00:49:00.753Z,867.35
2017-03-02T00:49:05.391Z,867.37
2017-03-02T00:49:10.034Z,867.41
2017-03-02T00:49:14.386Z,867.44
2017-03-02T00:49:18.933Z,867.42
2017-03-02T00:49:23.573Z,867.44
2017-03-02T00:49:28.226Z,867.41
2017-03-02T00:49:32.909Z,867.41
2017-03-02T00:49:37.549Z,867.47
2017-03-02T00:49:42.222Z,867.45
2017-03-02T00:49:46.884Z,867.47
2017-03-02T00:49:51.228Z,867.49
2017-03-02T00:49:55.753Z,867.5
2017-03-02T00:50:00.400Z,867.45
2017-03-02T00:50:04.882Z,867.46
2017-03-02T00:50:09.236Z,867.45
2017-03-02T00:50:13.751Z,867.47
2017-03-02T00:50:18.396Z,867.42
2017-03-02T00:50:22.889Z,867.45
2017-03-02T00:50:27.396Z,867.45
2017-03-02T00:50:31.606Z,867.46
2017-03-02T00:50:36.256Z,867.45
2017-03-02T00:50:40.927Z,867.45
2017-03-02T00:50:45.577Z,867.42
2017-03-02T00:50:50.245Z,867.47
2017-03-02T00:50:54.881Z,867.44
2017-03-02T00:50:59.376Z,867.45
2017-03-02T00:51:04.016Z,867.45
2017-03-02T00:51:08.534Z,867.48
2017-03-02T00:51:13.210Z,867.42
2017-03-02T00:51:17.737Z,867.43
2017-03-02T00:51:22.375Z,867.45
2017-03-02T00:51:26.908Z,867.47
2017-03-02T00:51:31.396Z,867.47
2017-03-02T00:51:36.046Z,867.45
2017-03-02T00:51:40.705Z,867.46
2017-03-02T00:51:45.355Z,867.48
2017-03-02T00:51:49.850Z,867.49
2017-03-02T00:51:54.210Z,867.49
2017-03-02T00:51:58.692Z,867.49
2017-03-02T00:52:03.440Z,867.48
2017-03-02T00:52:07.930Z,867.46
2017-03-02T00:52:12.602Z,867.45
2017-03-02T00:52:17.243Z,867.46
2017-03-02T00:52:21.884Z,867.48
2017-03-02T00:52:26.392Z,867.45
2017-03-02T00:52:30.764Z,867.48
2017-03-02T00:52:35.424Z,867.47
2017-03-02T00:52:39.934Z,867.47
2017-03-02T00:52:44.602Z,867.49
2017-03-02T00:52:49.244Z,867.51
2017-03-02T00:52:53.764Z,867.48
2017-03-02T00:52:58.419Z,867.49
2017-03-02T00:53:03.239Z,867.52
2017-03-02T00:53:07.889Z,867.52
2017-03-02T00:53:12.532Z,867.51
2017-03-02T00:53:17.185Z,867.52
2017-03-02T00:53:21.676Z,867.51
2017-03-02T00:53:26.321Z,867.52
2017-03-02T00:53:30.864Z,867.52
2017-03-02T00:53:35.377Z,867.51
2017-03-02T00:53:40.031Z,867.49
2017-03-02T00:53:44.715Z,867.48
2017-03-02T00:53:49.403Z,867.49
2017-03-02T00:53:54.069Z,867.52
2017-03-02T00:53:58.709Z,867.54
2017-03-02T00:54:03.562Z,867.54
2017-03-02T00:54:08.214Z,867.56
2017-03-02T00:54:12.695Z,867.54
2017-03-02T00:54:17.336Z,867.55
2017-03-02T00:54:21.988Z,867.53
2017-03-02T00:54:26.638Z,867.53
2017-03-02T00:54:31.294Z,867.56
2017-03-02T00:54:35.649Z,867.55
2017-03-02T00:54:40.027Z,867.54
2017-03-02T00:54:44.730Z,867.55
2017-03-02T00:54:49.230Z,867.55
2017-03-02T00:54:53.731Z,867.52
2017-03-02T00:54:58.074Z,867.54
2017-03-02T00:55:02.825Z,867.52
2017-03-02T00:55:07.333Z,867.54
2017-03-02T00:55:11.984Z,867.55
2017-03-02T00:55:16.625Z,867.54
2017-03-02T00:55:21.258Z,867.54
2017-03-02T00:55:25.596Z,867.57
2017-03-02T00:55:30.088Z,867.51
2017-03-02T00:55:34.731Z,867.57
2017-03-02T00:55:39.256Z,867.56
2017-03-02T00:55:43.905Z,867.57
2017-03-02T00:55:48.551Z,867.5
2017-03-02T00:55:53.039Z,867.52
2017-03-02T00:55:57.683Z,867.58
2017-03-02T00:56:02.592Z,867.61
2017-03-02T00:56:07.107Z,867.58
2017-03-02T00:56:11.461Z,867.56
2017-03-02T00:56:16.096Z,867.57
2017-03-02T00:56:20.622Z,867.58
2017-03-02T00:56:25.255Z,867.56
2017-03-02T00:56:29.925Z,867.58
2017-03-02T00:56:34.589Z,867.58
2017-03-02T00:56:39.116Z,867.6
2017-03-02T00:56:43.609Z,867.57
2017-03-02T00:56:48.269Z,867.56
2017-03-02T00:56:52.913Z,867.56
2017-03-02T00:56:57.542Z,867.57
2017-03-02T00:57:02.342Z,867.57
2017-03-02T00:57:06.984Z,867.58
2017-03-02T00:57:11.632Z,867.57
2017-03-02T00:57:16.257Z,867.57
2017-03-02T00:57:20.907Z,867.59
2017-03-02T00:57:25.563Z,867.58